createdAt,value
2023-05-24T00:01:34.651Z,9.10
2023-05-24T00:04:03.234Z,9.00
2023-05-24T00:06:35.415Z,9.00
2023-05-24T00:09:06.464Z,9.00
2023-05-24T00:11:34.578Z,8.90
2023-05-24T00:14:02.677Z,9.00
2023-05-24T00:16:31.208Z,8.90
2023-05-24T00:18:59.449Z,8.90
2023-05-24T00:21:28.895Z,9.00
2023-05-24T00:23:57.061Z,9.00
2023-05-24T00:26:28.768Z,8.90
2023-05-24T00:28:57.236Z,8.80
2023-05-24T00:31:26.697Z,9.00
2023-05-24T00:33:56.124Z,8.90
2023-05-24T00:36:26.638Z,8.90
2023-05-24T00:39:01.550Z,8.70
2023-05-24T00:42:00.431Z,8.80
2023-05-24T00:44:29.823Z,8.70
2023-05-24T00:46:58.036Z,8.70
2023-05-24T00:49:28.153Z,8.70
2023-05-24T00:52:00.046Z,8.60
2023-05-24T00:54:30.862Z,8.80
2023-05-24T00:57:02.977Z,8.80
2023-05-24T00:59:35.265Z,8.70
2023-05-24T01:02:03.733Z,8.80
2023-05-24T01:04:33.207Z,8.70
2023-05-24T01:07:14.824Z,8.70
2023-05-24T01:09:56.046Z,8.80
2023-05-24T01:12:36.971Z,8.80
2023-05-24T01:15:16.129Z,8.80
2023-05-24T01:17:53.000Z,8.80
2023-05-24T01:20:25.578Z,8.70
2023-05-24T01:23:05.960Z,8.70
2023-05-24T01:26:24.688Z,8.60
2023-05-24T01:28:56.052Z,8.50
2023-05-24T01:31:25.610Z,8.40
2023-05-24T01:33:53.964Z,8.40
2023-05-24T01:36:22.424Z,8.30
2023-05-24T01:38:54.471Z,8.20
2023-05-24T01:41:35.841Z,8.10
2023-05-24T01:44:14.684Z,8.10
2023-05-24T01:46:43.158Z,8.00
2023-05-24T01:49:20.468Z,8.10
2023-05-24T01:52:00.235Z,8.00
2023-05-24T01:54:32.890Z,8.00
2023-05-24T01:57:03.590Z,7.90
2023-05-24T01:59:34.535Z,7.80
2023-05-24T02:02:04.033Z,7.80
2023-05-24T02:04:34.172Z,7.80
2023-05-24T02:07:05.571Z,7.90
2023-05-24T02:09:42.731Z,7.70
2023-05-24T02:12:13.150Z,7.70
2023-05-24T02:14:46.931Z,7.60
2023-05-24T02:17:18.168Z,7.70
2023-05-24T02:19:50.347Z,7.70
2023-05-24T02:22:21.109Z,7.70
2023-05-24T02:24:49.522Z,7.80
2023-05-24T02:27:18.829Z,7.80
2023-05-24T02:29:58.473Z,7.80
2023-05-24T02:32:38.712Z,7.80
2023-05-24T02:35:17.442Z,7.60
2023-05-24T02:37:53.684Z,7.60
2023-05-24T02:40:24.497Z,7.50
2023-05-24T02:43:08.101Z,7.60
2023-05-24T02:45:37.893Z,7.50
2023-05-24T02:48:06.655Z,7.60
2023-05-24T02:51:08.689Z,7.50
2023-05-24T02:53:38.934Z,7.40
2023-05-24T02:56:09.610Z,7.40
2023-05-24T02:58:43.188Z,7.40
2023-05-24T03:04:01.179Z,7.30
2023-05-24T03:06:36.394Z,7.30
2023-05-24T03:09:08.342Z,7.20
2023-05-24T03:11:40.452Z,7.30
2023-05-24T03:14:11.786Z,7.20
2023-05-24T03:16:46.647Z,7.20
2023-05-24T03:19:17.253Z,7.20
2023-05-24T03:21:45.449Z,7.10
2023-05-24T03:24:15.260Z,7.20
2023-05-24T03:26:43.302Z,7.20
2023-05-24T03:29:12.683Z,7.20
2023-05-24T03:31:42.328Z,7.20
2023-05-24T03:34:13.823Z,7.00
2023-05-24T03:36:42.128Z,7.00
2023-05-24T03:39:12.640Z,7.00
2023-05-24T03:41:46.274Z,7.00
2023-05-24T03:44:16.835Z,6.90
2023-05-24T03:47:01.145Z,6.80
2023-05-24T03:49:29.723Z,6.80
2023-05-24T03:52:00.249Z,6.80
2023-05-24T03:54:30.357Z,6.80
2023-05-24T03:56:58.678Z,6.70
2023-05-24T03:59:30.884Z,6.90
2023-05-24T04:02:00.584Z,6.80
2023-05-24T04:04:30.118Z,6.90
2023-05-24T04:06:58.383Z,6.90
2023-05-24T04:09:26.575Z,7.00
2023-05-24T04:11:54.693Z,7.00
2023-05-24T04:14:23.835Z,7.00
2023-05-24T04:16:52.079Z,6.90
2023-05-24T04:19:24.491Z,7.00
2023-05-24T04:21:56.849Z,7.00
2023-05-24T04:24:25.043Z,7.10
2023-05-24T04:26:53.336Z,7.00
2023-05-24T04:29:23.755Z,7.10
2023-05-24T04:31:52.423Z,7.20
2023-05-24T04:34:23.422Z,7.00
2023-05-24T04:36:53.137Z,7.00
2023-05-24T04:39:24.875Z,7.00
2023-05-24T04:41:55.335Z,7.00
2023-05-24T04:44:26.535Z,7.00
2023-05-24T04:46:58.051Z,7.00
2023-05-24T04:49:29.822Z,7.10
2023-05-24T04:52:06.605Z,7.10
2023-05-24T04:55:03.693Z,7.10
2023-05-24T04:57:32.969Z,7.10
2023-05-24T05:00:02.980Z,7.20
2023-05-24T05:02:33.777Z,7.20
2023-05-24T05:05:09.058Z,7.30
2023-05-24T05:07:39.650Z,7.30
2023-05-24T05:10:14.492Z,7.40
2023-05-24T05:15:49.193Z,7.70
2023-05-24T05:18:21.123Z,7.90
2023-05-24T05:23:40.724Z,8.00
2023-05-24T05:26:23.394Z,8.10
2023-05-24T05:28:52.419Z,8.10
2023-05-24T05:31:27.012Z,8.20
2023-05-24T05:34:14.749Z,8.00
2023-05-24T05:36:47.905Z,8.20
2023-05-24T05:39:25.173Z,8.20
2023-05-24T05:41:56.487Z,8.30
2023-05-24T05:44:50.570Z,8.30
2023-05-24T05:47:21.934Z,8.30
2023-05-24T05:49:54.811Z,8.30
2023-05-24T05:52:27.343Z,8.30
2023-05-24T05:54:57.488Z,8.30
2023-05-24T05:57:26.854Z,8.30
2023-05-24T05:59:56.149Z,8.40
2023-05-24T06:02:55.886Z,8.50
2023-05-24T06:06:06.188Z,8.70
2023-05-24T06:08:44.744Z,8.70
2023-05-24T06:11:13.936Z,8.90
2023-05-24T06:13:55.633Z,8.80
2023-05-24T06:16:27.784Z,9.10
2023-05-24T06:19:05.854Z,9.30
2023-05-24T06:21:42.359Z,9.30
2023-05-24T06:24:20.473Z,9.40
2023-05-24T06:26:51.720Z,9.30
2023-05-24T06:29:25.482Z,9.00
2023-05-24T06:31:53.690Z,9.40
2023-05-24T06:34:22.157Z,9.40
2023-05-24T06:36:51.354Z,9.20
2023-05-24T06:39:21.155Z,9.30
2023-05-24T06:41:58.493Z,8.90
2023-05-24T06:44:49.619Z,9.10
2023-05-24T06:47:24.201Z,8.90
2023-05-24T06:50:11.219Z,8.80
2023-05-24T06:52:42.859Z,8.80
2023-05-24T06:55:15.823Z,8.50
2023-05-24T06:58:01.661Z,8.60
2023-05-24T07:00:30.050Z,8.80
2023-05-24T07:02:59.690Z,9.00
2023-05-24T07:05:34.906Z,9.00
2023-05-24T07:08:03.224Z,9.10
2023-05-24T07:10:41.517Z,9.10
2023-05-24T07:13:13.775Z,8.90
2023-05-24T07:15:45.639Z,9.30
2023-05-24T07:18:16.530Z,9.10
2023-05-24T07:20:46.041Z,9.10
2023-05-24T07:23:19.719Z,9.20
2023-05-24T07:25:58.018Z,9.10
2023-05-24T07:28:26.276Z,9.10
2023-05-24T07:30:57.327Z,9.10
2023-05-24T07:33:30.902Z,9.20
2023-05-24T07:35:59.875Z,9.70
2023-05-24T07:38:36.727Z,10.00
2023-05-24T07:41:41.019Z,10.50
2023-05-24T07:47:03.688Z,10.50
2023-05-24T07:49:57.591Z,10.50
2023-05-24T07:52:41.786Z,10.40
2023-05-24T07:55:11.152Z,10.20
2023-05-24T07:57:39.227Z,10.30
2023-05-24T08:00:14.757Z,10.30
2023-05-24T08:02:48.429Z,10.10
2023-05-24T08:05:23.222Z,10.20
2023-05-24T08:07:51.488Z,10.20
2023-05-24T08:10:21.047Z,10.20
2023-05-24T08:12:53.619Z,10.20
2023-05-24T08:15:24.962Z,10.20
2023-05-24T08:17:53.149Z,10.40
2023-05-24T08:20:21.524Z,10.50
2023-05-24T08:23:16.579Z,10.70
2023-05-24T08:26:13.977Z,11.20
2023-05-24T08:28:42.144Z,11.70
2023-05-24T08:31:12.700Z,12.60
2023-05-24T08:33:43.102Z,13.30
2023-05-24T08:36:26.979Z,13.90
2023-05-24T08:39:00.972Z,15.90
2023-05-24T08:47:41.835Z,14.50
2023-05-24T08:50:41.474Z,15.10
2023-05-24T08:55:58.291Z,13.70
2023-05-24T08:58:30.521Z,15.20
2023-05-24T09:01:02.273Z,16.00
2023-05-24T09:03:38.991Z,15.40
2023-05-24T09:06:10.532Z,16.00
2023-05-24T09:08:41.196Z,13.30
2023-05-24T09:11:28.938Z,12.60
2023-05-24T09:14:04.982Z,13.30
2023-05-24T09:22:45.413Z,12.30
2023-05-24T09:25:36.152Z,13.20
2023-05-24T09:28:49.589Z,12.40
2023-05-24T09:31:21.639Z,12.80
2023-05-24T09:33:51.660Z,12.50
2023-05-24T09:36:24.051Z,13.90
2023-05-24T09:39:11.425Z,13.40
2023-05-24T09:41:40.034Z,13.40
2023-05-24T09:44:14.841Z,12.50
2023-05-24T09:46:47.075Z,12.50
2023-05-24T09:49:15.623Z,12.90
2023-05-24T09:51:47.296Z,12.70
2023-05-24T09:54:23.514Z,13.10
2023-05-24T09:56:53.464Z,13.00
2023-05-24T09:59:24.168Z,12.90
2023-05-24T10:02:12.172Z,12.70
2023-05-24T10:05:09.298Z,12.80
2023-05-24T10:07:41.187Z,12.70
2023-05-24T10:10:38.207Z,12.20
2023-05-24T10:13:21.326Z,12.60
2023-05-24T10:15:52.151Z,12.60
2023-05-24T10:18:25.334Z,12.30
2023-05-24T10:20:58.421Z,12.60
2023-05-24T10:23:32.684Z,12.70
2023-05-24T10:26:09.939Z,12.60
2023-05-24T10:28:46.531Z,13.00
2023-05-24T10:31:21.472Z,13.30
2023-05-24T10:33:55.584Z,13.20
2023-05-24T10:36:28.723Z,13.40
2023-05-24T10:39:00.884Z,13.00
2023-05-24T10:41:40.382Z,13.10
2023-05-24T10:44:22.650Z,12.90
2023-05-24T10:47:14.642Z,12.90
2023-05-24T10:49:53.828Z,13.10
2023-05-24T10:52:23.178Z,13.10
2023-05-24T10:55:05.858Z,13.50
2023-05-24T10:57:36.958Z,13.00
2023-05-24T11:00:39.883Z,13.70
2023-05-24T11:03:24.862Z,13.50
2023-05-24T11:05:56.978Z,14.10
2023-05-24T11:09:09.917Z,13.90
2023-05-24T11:16:13.389Z,13.70
2023-05-24T11:19:19.262Z,13.90
2023-05-24T11:25:13.138Z,14.00
2023-05-24T11:27:48.843Z,14.60
2023-05-24T11:30:27.361Z,14.70
2023-05-24T11:33:21.592Z,14.40
2023-05-24T11:35:58.066Z,14.50
2023-05-24T11:38:28.231Z,14.30
2023-05-24T11:41:01.297Z,14.50
2023-05-24T11:44:03.388Z,14.80
2023-05-24T11:46:46.111Z,15.00
2023-05-24T11:49:16.515Z,14.70
2023-05-24T11:51:55.042Z,15.10
2023-05-24T11:54:47.871Z,14.90
2023-05-24T11:57:54.168Z,15.00
2023-05-24T12:00:27.946Z,14.40
2023-05-24T12:03:06.467Z,15.00
2023-05-24T12:05:45.180Z,14.70
2023-05-24T12:08:31.277Z,15.00
2023-05-24T12:21:37.386Z,14.10
2023-05-24T12:24:52.622Z,14.90
2023-05-24T12:27:33.943Z,15.40
2023-05-24T12:30:20.196Z,15.00
2023-05-24T12:33:13.165Z,15.00
2023-05-24T12:35:44.291Z,15.30
2023-05-24T12:38:20.034Z,15.20
2023-05-24T12:41:28.874Z,15.30
2023-05-24T12:44:37.265Z,15.50
2023-05-24T12:47:14.480Z,15.30
2023-05-24T12:52:24.767Z,14.70
2023-05-24T12:54:53.428Z,15.30
2023-05-24T12:57:24.822Z,14.40
2023-05-24T13:00:21.277Z,14.20
2023-05-24T13:05:52.352Z,14.30
2023-05-24T13:08:34.325Z,14.50
2023-05-24T13:11:34.830Z,14.80
2023-05-24T13:14:17.887Z,14.90
2023-05-24T13:16:47.295Z,15.00
2023-05-24T13:19:17.778Z,15.00
2023-05-24T13:22:07.126Z,15.00
2023-05-24T13:27:44.638Z,14.80
2023-05-24T13:30:17.311Z,15.00
2023-05-24T13:32:49.686Z,14.40
2023-05-24T13:35:36.397Z,14.90
2023-05-24T13:38:21.688Z,14.30
2023-05-24T13:44:13.847Z,14.80
2023-05-24T13:46:47.232Z,15.20
2023-05-24T13:49:16.113Z,15.10
2023-05-24T13:51:48.470Z,15.40
2023-05-24T13:54:18.838Z,15.10
2023-05-24T13:56:49.204Z,15.20
2023-05-24T13:59:19.024Z,15.30
2023-05-24T14:01:48.749Z,15.40
2023-05-24T14:04:17.407Z,15.60
2023-05-24T14:07:01.873Z,16.10
2023-05-24T14:09:45.790Z,15.10
2023-05-24T14:12:30.561Z,15.40
2023-05-24T14:15:00.306Z,15.40
2023-05-24T14:17:30.299Z,15.20
2023-05-24T14:20:05.611Z,14.90
2023-05-24T14:23:08.087Z,14.80
2023-05-24T14:25:37.393Z,14.90
2023-05-24T14:28:09.029Z,15.00
2023-05-24T14:30:40.988Z,15.00
2023-05-24T14:33:13.664Z,14.90
2023-05-24T14:35:42.203Z,14.70
2023-05-24T14:38:13.071Z,14.70
2023-05-24T14:40:42.607Z,14.80
2023-05-24T14:43:18.524Z,14.90
2023-05-24T14:45:57.660Z,15.10
2023-05-24T14:48:27.353Z,15.30
2023-05-24T14:50:59.045Z,15.80
2023-05-24T14:56:52.269Z,15.80
2023-05-24T14:59:23.314Z,15.50
2023-05-24T15:01:51.664Z,15.40
2023-05-24T15:04:22.884Z,15.50
2023-05-24T15:06:57.547Z,15.00
2023-05-24T15:12:20.989Z,15.10
2023-05-24T15:14:52.198Z,14.90
2023-05-24T15:17:21.878Z,14.90
2023-05-24T15:19:51.637Z,14.90
2023-05-24T15:22:21.208Z,15.40
2023-05-24T15:24:50.873Z,15.20
2023-05-24T15:27:18.930Z,15.30
2023-05-24T15:29:47.182Z,15.70
2023-05-24T15:32:17.157Z,15.70
2023-05-24T15:34:46.776Z,15.70
2023-05-24T15:37:17.737Z,15.70
2023-05-24T15:39:46.073Z,15.70
2023-05-24T15:42:15.777Z,15.70
2023-05-24T15:44:44.721Z,15.70
2023-05-24T15:47:31.394Z,15.60
2023-05-24T15:49:59.721Z,15.70
2023-05-24T15:59:31.662Z,16.00
2023-05-24T16:02:44.888Z,16.20
2023-05-24T16:05:13.016Z,16.30
2023-05-24T16:07:43.184Z,16.60
2023-05-24T16:10:11.790Z,16.50
2023-05-24T16:12:41.759Z,16.40
2023-05-24T16:15:11.323Z,16.30
2023-05-24T16:17:44.805Z,15.60
2023-05-24T16:20:19.281Z,15.60
2023-05-24T16:26:24.793Z,15.40
2023-05-24T16:28:52.899Z,15.30
2023-05-24T16:31:24.533Z,15.30
2023-05-24T16:36:23.001Z,15.10
2023-05-24T16:38:51.244Z,15.00
2023-05-24T16:41:19.428Z,15.30
2023-05-24T16:43:49.708Z,15.10
2023-05-24T16:46:18.950Z,15.00
2023-05-24T16:49:06.187Z,15.00
2023-05-24T16:52:07.195Z,14.80
2023-05-24T16:54:54.951Z,14.80
2023-05-24T16:57:23.468Z,14.70
2023-05-24T16:59:53.074Z,14.80
2023-05-24T17:02:21.364Z,14.70
2023-05-24T17:10:56.345Z,14.50
2023-05-24T17:13:27.382Z,14.60
2023-05-24T17:15:57.932Z,14.60
2023-05-24T17:19:12.772Z,14.40
2023-05-24T17:21:44.059Z,14.20
2023-05-24T17:24:18.285Z,14.30
2023-05-24T17:26:54.171Z,14.20
2023-05-24T17:29:29.541Z,14.10
2023-05-24T17:32:00.443Z,14.20
2023-05-24T17:34:32.376Z,14.00
2023-05-24T17:37:01.947Z,13.90
2023-05-24T17:39:30.267Z,13.90
2023-05-24T17:42:00.679Z,14.00
2023-05-24T17:44:32.813Z,14.00
2023-05-24T17:47:04.720Z,13.90
2023-05-24T17:49:40.470Z,13.90
2023-05-24T17:52:10.026Z,13.80
2023-05-24T17:54:39.374Z,13.80
2023-05-24T17:57:07.893Z,13.80
2023-05-24T17:59:41.012Z,13.70
2023-05-24T18:02:10.942Z,13.80
2023-05-24T18:04:42.846Z,13.80
2023-05-24T18:07:25.788Z,13.70
2023-05-24T18:10:14.811Z,13.70
2023-05-24T18:13:05.068Z,13.70
2023-05-24T18:15:39.939Z,13.70
2023-05-24T18:18:19.122Z,13.70
2023-05-24T18:20:52.776Z,13.60
2023-05-24T18:23:22.746Z,13.50
2023-05-24T18:26:00.565Z,13.50
2023-05-24T18:28:31.874Z,13.50
2023-05-24T18:31:02.709Z,13.40
2023-05-24T18:33:37.686Z,13.30
2023-05-24T18:36:12.946Z,13.20
2023-05-24T18:38:44.942Z,13.20
2023-05-24T18:43:57.339Z,13.10
2023-05-24T18:46:28.236Z,13.00
2023-05-24T18:49:00.402Z,13.00
2023-05-24T18:51:28.809Z,13.00
2023-05-24T18:53:58.260Z,12.90
2023-05-24T18:56:28.178Z,12.80
2023-05-24T18:58:58.742Z,12.70
2023-05-24T19:01:30.462Z,12.60
2023-05-24T19:04:02.512Z,12.60
2023-05-24T19:06:33.525Z,12.50
2023-05-24T19:09:08.584Z,12.50
2023-05-24T19:11:37.955Z,12.30
2023-05-24T19:14:10.893Z,12.30
2023-05-24T19:16:53.103Z,12.20
2023-05-24T19:19:27.956Z,12.20
2023-05-24T19:21:58.785Z,12.20
2023-05-24T19:24:39.704Z,12.20
2023-05-24T19:27:08.254Z,12.20
2023-05-24T19:29:37.435Z,12.00
2023-05-24T19:32:06.284Z,12.00
2023-05-24T19:34:37.704Z,11.90
2023-05-24T19:37:06.203Z,11.80
2023-05-24T19:39:34.290Z,11.70
2023-05-24T19:42:02.683Z,11.60
2023-05-24T19:44:33.706Z,11.60
2023-05-24T19:47:01.843Z,11.50
2023-05-24T19:49:32.793Z,11.50
2023-05-24T19:52:20.068Z,11.50
2023-05-24T19:54:53.421Z,11.40
2023-05-24T19:57:23.070Z,11.40
2023-05-24T19:59:53.296Z,11.30
2023-05-24T20:02:21.432Z,11.30
2023-05-24T20:04:50.745Z,11.20
2023-05-24T20:07:20.236Z,11.30
2023-05-24T20:09:50.455Z,11.20
2023-05-24T20:12:18.615Z,11.20
2023-05-24T20:14:51.177Z,11.20
2023-05-24T20:17:22.487Z,11.20
2023-05-24T20:19:52.699Z,11.20
2023-05-24T20:22:23.642Z,11.20
2023-05-24T20:25:07.233Z,11.20
2023-05-24T20:28:02.843Z,11.20
2023-05-24T20:30:33.407Z,11.10
2023-05-24T20:33:02.159Z,11.00
2023-05-24T20:35:35.141Z,10.90
2023-05-24T20:38:07.027Z,10.90
2023-05-24T20:40:35.378Z,10.80
2023-05-24T20:43:03.748Z,10.80
2023-05-24T20:45:33.420Z,10.70
2023-05-24T20:48:05.601Z,10.70
2023-05-24T20:50:34.948Z,10.60
2023-05-24T20:53:03.069Z,10.40
2023-05-24T20:55:40.062Z,10.40
2023-05-24T20:58:08.265Z,10.40
2023-05-24T21:00:39.673Z,10.40
2023-05-24T21:03:08.829Z,10.40
2023-05-24T21:05:42.611Z,10.40
2023-05-24T21:08:14.689Z,10.40
2023-05-24T21:10:45.961Z,10.40
2023-05-24T21:13:14.091Z,10.30
2023-05-24T21:15:45.302Z,10.20
2023-05-24T21:18:14.191Z,10.20
2023-05-24T21:20:42.666Z,10.20
2023-05-24T21:23:13.037Z,10.20
2023-05-24T21:25:43.557Z,10.10
2023-05-24T21:28:14.051Z,9.90
2023-05-24T21:30:42.450Z,9.70
2023-05-24T21:33:14.174Z,9.60
2023-05-24T21:35:44.002Z,9.50
2023-05-24T21:38:14.246Z,9.50
2023-05-24T21:40:42.444Z,9.60
2023-05-24T21:43:13.208Z,9.60
2023-05-24T21:45:43.285Z,9.50
2023-05-24T21:48:12.211Z,9.30
2023-05-24T21:50:40.403Z,9.30
2023-05-24T21:53:11.050Z,9.20
2023-05-24T21:58:33.978Z,9.30
2023-05-24T22:01:02.123Z,9.20
2023-05-24T22:03:31.970Z,9.30
2023-05-24T22:06:00.211Z,9.20
2023-05-24T22:08:30.397Z,9.20
2023-05-24T22:10:58.677Z,9.20
2023-05-24T22:13:27.300Z,9.30
2023-05-24T22:15:56.784Z,9.20
2023-05-24T22:18:30.391Z,9.20
2023-05-24T22:20:59.422Z,9.10
2023-05-24T22:23:27.614Z,8.90
2023-05-24T22:25:56.046Z,8.90
2023-05-24T22:28:28.377Z,8.90
2023-05-24T22:30:59.153Z,8.90
2023-05-24T22:33:27.305Z,9.00
2023-05-24T22:35:55.685Z,8.90
2023-05-24T22:38:24.095Z,8.90
2023-05-24T22:40:53.516Z,9.00
2023-05-24T22:43:22.784Z,8.90
2023-05-24T22:45:52.781Z,8.90
2023-05-24T22:48:26.537Z,8.80
2023-05-24T22:50:57.510Z,8.50
2023-05-24T22:53:25.564Z,8.40
2023-05-24T22:55:53.805Z,8.30
2023-05-24T22:58:27.114Z,8.20
2023-05-24T23:00:56.358Z,8.20
2023-05-24T23:03:25.901Z,8.10
2023-05-24T23:06:07.758Z,8.10
2023-05-24T23:08:40.149Z,8.00
2023-05-24T23:11:10.961Z,8.00
2023-05-24T23:13:42.291Z,8.10
2023-05-24T23:16:19.047Z,8.10
2023-05-24T23:18:49.677Z,8.10
2023-05-24T23:21:25.225Z,8.10
2023-05-24T23:23:54.022Z,8.10
2023-05-24T23:26:23.185Z,8.10
2023-05-24T23:28:55.117Z,8.00
2023-05-24T23:31:24.179Z,7.90
2023-05-24T23:33:53.611Z,7.80
2023-05-24T23:36:22.039Z,7.70
2023-05-24T23:38:50.344Z,7.70
2023-05-24T23:41:19.166Z,7.70
2023-05-24T23:43:48.407Z,7.70
2023-05-24T23:46:18.078Z,7.70
2023-05-24T23:48:46.536Z,7.70
2023-05-24T23:51:19.556Z,7.70
2023-05-24T23:53:49.773Z,7.70
2023-05-24T23:56:19.141Z,7.50
2023-05-24T23:58:48.497Z,7.60
